To NAV CANADA Home Page Login to a new session Search on AWWS site Feedback and Comments Disclaimer Vers la page française équivalente Tips FAQ What's new on the site To the Forecasts and Observations / NOTAM section To "File a Flight Plan" website Publications and other links Update of the User's profile FIC Telephone Numbers My Weather Data Folder Route Weather Data Regional Weather Data Local Weather Data To the Forecasts and Observations / NOTAM section
Request Generated 02/24/2017 at 03:36:13 UTC . Weather information available at that time is displayed.

METAR/TAF

HAVRE ST-PIERRE/QC    (show WxCam)

METAR CYGV 240300Z AUTO 08012KT 9SM -SN OVC005 M01/M01 A2944 RMK
SLP973=
SPECI CYGV 240230Z AUTO 07012G17KT 6SM -SN OVC005 M01/M01 A2944 RMK
SLP974=
SPECI CYGV 240221Z AUTO 07012KT 3SM -SN OVC005 M01/M01 A2945 RMK
SLP977=
SPECI CYGV 240214Z AUTO 07011G16KT 2SM -SN OVC005 M01/M01 A2946 RMK
SLP978=
METAR CYGV 240200Z AUTO 07010KT 1 3/4SM -SN OVC005 M01/M01 A2947 RMK
PRESFR SLP982=
SPECI CYGV 240116Z AUTO VRB12G17KT 1SM -SN BKN005 OVC017 M01/M01
A2950 RMK PRESFR SLP993=
METAR CYGV 240100Z AUTO 09012G22KT 3/4SM -SN OVC003 M00/M00 A2951 RMK
PRESFR SLP997=

TAF AMD CYGV 240249Z 2402/2414 07012KT 2SM -SN OVC005 TEMPO 2402/2404
6SM -SN OVC008 PROB30 2402/2404 3/4SM -SN BR
FM240400 05010KT 2SM -SN BR OVC006 TEMPO 2404/2406 6SM -RASN BR
OVC012 PROB30 2404/2406 3SM -FZRA BR
FM240600 01012KT P6SM OVC015 TEMPO 2406/2409 6SM -SHSN
FM240900 31008KT P6SM SCT015 TEMPO 2409/2414 BKN015
BECMG 2410/2412 VRB03KT
RMK FCST BASED ON AUTO OBS. NXT FCST BY 240800Z=
Your time UTC time
Weather data provided by Environment Canada and NAV CANADA